Language selection

Weather shortcuts

Lake Manitoba: Past 24 Hour Conditions

 

Portage Southport Airport

12:00 AM CDT 14 June 2024
Disclaimer

This table is a summary of hourly weather conditions for the past 24 hours.
Please note that these observations might not always be representative of weather conditions over their associated marine area.

Date / Time
(CDT)
Wind(knots) Conditions Visibility(km) Pressure(kPa) Air tempC) Relative humidity(%) Dew pointC) Humidex
14 June 2024
0:00 calm Mainly Clear 24 101.5 14 90 12 *
13 June 2024
23:00 SSW 2 Partly Cloudy 24 101.5 15 87 13 *
22:00 SSW 2 Partly Cloudy 24 101.5 16 79 13 *
21:00 WSW 5 Partly Cloudy 24 101.4 19 62 12 *
20:00 SSW 2 Mostly Cloudy 24 101.4 19 63 12 *
19:00 W 7 Mostly Cloudy 24 101.4 20 55 11 22
18:00 WNW 6 Mostly Cloudy 24 101.4 20 51 10 21
17:00 NNW 10 Mostly Cloudy 24 101.3 21 47 9 22
16:00 N 6 Partly Cloudy 24 101.3 21 48 9 22
15:00 NNW 9 Partly Cloudy 24 101.2 20 52 10 22
14:00 NNW 9 Partly Cloudy 24 101.2 19 55 10 *
13:00 NW 12 Mostly Cloudy 24 101.1 19 59 11 *
12:00 NW 11 Mostly Cloudy 24 101.1 19 64 12 *
11:00 NW 10 Mostly Cloudy 24 101.0 16 74 12 *
10:00 WNW 10 Mostly Cloudy 24 101.0 16 77 12 *
9:00 WNW 10 Light Rainshower 24 100.9 15 80 11 *
8:00 W 10 Mostly Cloudy 24 100.8 14 79 11 *
7:00 W 10 Mostly Cloudy 24 100.8 13 82 10 *
6:00 WSW 11 Mostly Cloudy 24 100.7 13 85 10 *
5:00 WSW 5 N/A N/A 100.6 12 91 11 *
4:00 WSW 3 N/A N/A 100.6 12 93 11 *
3:00 WSW 5 N/A N/A 100.6 12 100 12 *
2:00 SW 5 N/A N/A 100.6 13 100 13 *
1:00 SW 5 N/A N/A 100.6 13 100 13 *
0:00 SSW 7 Partly Cloudy 24 100.6 15 96 14 *

Zoom-in to make a selection

Map of Prairies - Manitoba Lakes marine weather areas Lake Winnipeg South Basin - 45140 Lake Winnipeg North - 45144 Lake Winnipeg Narrows - 45145 Lake Of the Woods - 45148 Carberry Portage Southport Airport Wasagaming Sprague Winnipeg Richardson Int'l Airport Berens River Airport George Island Fisher Branch Gimli Harbour Gimli Grand Rapids Victoria Beach Dauphin Airport McCreary Oak Point Marine Swan River Norway House Airport Kenora Airport Royal Island
Legend:
buoy Buoy
land station Land Station

Prairies - Manitoba Lakes Area

Another Region

Features

New Predicting and Alerting Coastal Flooding Program

Find out about coastal flooding coverage, forecasts and warnings in your region

Date modified: